sensor_id;sensor_type;location;lat;lon;timestamp;P1;durP1;ratioP1;P2;durP2;ratioP2
22851;SDS011;11592;45.460;9.240;2023-01-01T00:01:24;339.02;;;190.43;;
22851;SDS011;11592;45.460;9.240;2023-01-01T00:03:54;354.40;;;199.07;;
22851;SDS011;11592;45.460;9.240;2023-01-01T00:06:22;354.63;;;198.70;;
22851;SDS011;11592;45.460;9.240;2023-01-01T00:08:49;358.88;;;199.02;;
22851;SDS011;11592;45.460;9.240;2023-01-01T00:11:39;359.02;;;197.50;;
22851;SDS011;11592;45.460;9.240;2023-01-01T00:14:05;352.05;;;194.85;;
22851;SDS011;11592;45.460;9.240;2023-01-01T00:16:37;374.90;;;212.13;;
22851;SDS011;11592;45.460;9.240;2023-01-01T00:19:04;354.70;;;202.30;;
22851;SDS011;11592;45.460;9.240;2023-01-01T00:21:31;365.88;;;205.43;;
22851;SDS011;11592;45.460;9.240;2023-01-01T00:23:58;429.00;;;233.73;;
22851;SDS011;11592;45.460;9.240;2023-01-01T00:26:25;431.20;;;247.38;;
22851;SDS011;11592;45.460;9.240;2023-01-01T00:28:59;400.03;;;225.07;;
22851;SDS011;11592;45.460;9.240;2023-01-01T00:31:27;371.85;;;204.60;;
22851;SDS011;11592;45.460;9.240;2023-01-01T00:33:54;369.40;;;202.65;;
22851;SDS011;11592;45.460;9.240;2023-01-01T00:36:23;375.20;;;212.30;;
22851;SDS011;11592;45.460;9.240;2023-01-01T00:38:52;378.05;;;207.20;;
22851;SDS011;11592;45.460;9.240;2023-01-01T00:41:19;413.05;;;226.85;;
22851;SDS011;11592;45.460;9.240;2023-01-01T00:43:46;398.02;;;222.73;;
22851;SDS011;11592;45.460;9.240;2023-01-01T00:46:13;404.33;;;218.80;;
22851;SDS011;11592;45.460;9.240;2023-01-01T00:48:40;384.70;;;215.18;;
22851;SDS011;11592;45.460;9.240;2023-01-01T00:51:07;372.25;;;209.38;;
22851;SDS011;11592;45.460;9.240;2023-01-01T00:53:34;385.77;;;212.98;;
22851;SDS011;11592;45.460;9.240;2023-01-01T00:56:01;374.55;;;203.68;;
22851;SDS011;11592;45.460;9.240;2023-01-01T00:58:29;364.20;;;199.65;;
22851;SDS011;11592;45.460;9.240;2023-01-01T01:00:56;367.27;;;196.65;;
22851;SDS011;11592;45.460;9.240;2023-01-01T01:03:23;346.40;;;189.15;;
22851;SDS011;11592;45.460;9.240;2023-01-01T01:06:06;344.92;;;188.88;;
22851;SDS011;11592;45.460;9.240;2023-01-01T01:08:37;355.13;;;190.85;;
22851;SDS011;11592;45.460;9.240;2023-01-01T01:11:06;343.92;;;187.13;;
22851;SDS011;11592;45.460;9.240;2023-01-01T01:13:38;352.35;;;187.20;;
22851;SDS011;11592;45.460;9.240;2023-01-01T01:16:24;365.92;;;196.80;;
22851;SDS011;11592;45.460;9.240;2023-01-01T01:18:53;365.27;;;202.15;;
22851;SDS011;11592;45.460;9.240;2023-01-01T01:21:22;352.98;;;192.82;;
22851;SDS011;11592;45.460;9.240;2023-01-01T01:23:50;355.60;;;190.63;;
22851;SDS011;11592;45.460;9.240;2023-01-01T01:26:22;343.27;;;186.88;;
22851;SDS011;11592;45.460;9.240;2023-01-01T01:28:50;351.77;;;188.50;;
22851;SDS011;11592;45.460;9.240;2023-01-01T01:31:19;355.50;;;194.43;;
22851;SDS011;11592;45.460;9.240;2023-01-01T01:33:47;351.05;;;190.90;;
22851;SDS011;11592;45.460;9.240;2023-01-01T01:36:15;337.05;;;183.98;;
22851;SDS011;11592;45.460;9.240;2023-01-01T01:38:43;343.20;;;189.07;;
22851;SDS011;11592;45.460;9.240;2023-01-01T01:41:13;339.58;;;188.40;;
22851;SDS011;11592;45.460;9.240;2023-01-01T01:43:58;348.13;;;191.70;;
22851;SDS011;11592;45.460;9.240;2023-01-01T01:46:39;360.90;;;198.63;;
22851;SDS011;11592;45.460;9.240;2023-01-01T01:49:16;356.65;;;196.43;;
22851;SDS011;11592;45.460;9.240;2023-01-01T01:51:51;348.25;;;191.07;;
22851;SDS011;11592;45.460;9.240;2023-01-01T01:54:20;358.95;;;195.30;;
22851;SDS011;11592;45.460;9.240;2023-01-01T01:56:59;362.27;;;193.85;;
22851;SDS011;11592;45.460;9.240;2023-01-01T01:59:39;362.27;;;197.63;;
22851;SDS011;11592;45.460;9.240;2023-01-01T02:02:13;359.13;;;196.57;;
22851;SDS011;11592;45.460;9.240;2023-01-01T02:04:48;373.77;;;199.50;;
22851;SDS011;11592;45.460;9.240;2023-01-01T02:07:14;377.08;;;206.52;;
22851;SDS011;11592;45.460;9.240;2023-01-01T02:09:43;361.65;;;202.60;;
22851;SDS011;11592;45.460;9.240;2023-01-01T02:12:10;380.98;;;209.38;;
22851;SDS011;11592;45.460;9.240;2023-01-01T02:14:37;397.90;;;221.63;;
22851;SDS011;11592;45.460;9.240;2023-01-01T02:17:06;413.58;;;225.23;;
22851;SDS011;11592;45.460;9.240;2023-01-01T02:19:43;387.38;;;204.43;;
22851;SDS011;11592;45.460;9.240;2023-01-01T02:25:51;365.85;;;191.23;;
22851;SDS011;11592;45.460;9.240;2023-01-01T02:31:24;336.75;;;174.98;;
22851;SDS011;11592;45.460;9.240;2023-01-01T02:33:55;315.77;;;166.02;;
22851;SDS011;11592;45.460;9.240;2023-01-01T02:36:27;310.25;;;163.25;;
22851;SDS011;11592;45.460;9.240;2023-01-01T02:38:57;313.65;;;163.82;;
22851;SDS011;11592;45.460;9.240;2023-01-01T02:41:27;316.95;;;166.60;;
22851;SDS011;11592;45.460;9.240;2023-01-01T02:44:02;339.88;;;177.45;;
22851;SDS011;11592;45.460;9.240;2023-01-01T02:46:31;349.40;;;177.55;;
22851;SDS011;11592;45.460;9.240;2023-01-01T02:49:00;357.83;;;186.25;;
22851;SDS011;11592;45.460;9.240;2023-01-01T02:54:49;375.75;;;191.27;;
22851;SDS011;11592;45.460;9.240;2023-01-01T03:00:03;361.88;;;188.48;;
22851;SDS011;11592;45.460;9.240;2023-01-01T03:05:42;353.60;;;181.98;;
22851;SDS011;11592;45.460;9.240;2023-01-01T03:11:13;340.40;;;176.65;;
22851;SDS011;11592;45.460;9.240;2023-01-01T03:13:48;315.35;;;160.15;;
22851;SDS011;11592;45.460;9.240;2023-01-01T03:21:52;255.63;;;132.88;;
22851;SDS011;11592;45.460;9.240;2023-01-01T03:24:32;236.30;;;117.72;;
22851;SDS011;11592;45.460;9.240;2023-01-01T03:27:07;217.00;;;114.07;;
22851;SDS011;11592;45.460;9.240;2023-01-01T03:29:54;203.32;;;107.20;;
22851;SDS011;11592;45.460;9.240;2023-01-01T03:32:35;200.00;;;103.78;;
22851;SDS011;11592;45.460;9.240;2023-01-01T03:35:45;169.13;;;92.22;;
22851;SDS011;11592;45.460;9.240;2023-01-01T03:38:21;164.90;;;87.45;;
22851;SDS011;11592;45.460;9.240;2023-01-01T03:40:51;154.15;;;82.88;;
22851;SDS011;11592;45.460;9.240;2023-01-01T03:43:35;138.80;;;77.53;;
22851;SDS011;11592;45.460;9.240;2023-01-01T03:46:11;142.88;;;79.00;;
22851;SDS011;11592;45.460;9.240;2023-01-01T03:48:39;142.02;;;81.70;;
22851;SDS011;11592;45.460;9.240;2023-01-01T03:54:08;143.23;;;83.57;;
22851;SDS011;11592;45.460;9.240;2023-01-01T03:57:04;143.63;;;82.63;;
22851;SDS011;11592;45.460;9.240;2023-01-01T04:02:33;145.40;;;82.83;;
22851;SDS011;11592;45.460;9.240;2023-01-01T04:05:20;139.85;;;77.68;;
22851;SDS011;11592;45.460;9.240;2023-01-01T04:07:48;148.07;;;82.03;;
22851;SDS011;11592;45.460;9.240;2023-01-01T04:10:16;144.32;;;83.60;;
22851;SDS011;11592;45.460;9.240;2023-01-01T04:12:44;142.25;;;80.28;;
22851;SDS011;11592;45.460;9.240;2023-01-01T04:15:12;143.23;;;79.50;;
22851;SDS011;11592;45.460;9.240;2023-01-01T04:17:40;128.68;;;76.00;;
22851;SDS011;11592;45.460;9.240;2023-01-01T04:20:07;130.55;;;76.07;;
22851;SDS011;11592;45.460;9.240;2023-01-01T04:22:34;126.75;;;74.88;;
22851;SDS011;11592;45.460;9.240;2023-01-01T04:25:01;122.88;;;72.65;;
22851;SDS011;11592;45.460;9.240;2023-01-01T04:27:28;114.57;;;67.97;;
22851;SDS011;11592;45.460;9.240;2023-01-01T04:29:55;115.25;;;65.63;;
22851;SDS011;11592;45.460;9.240;2023-01-01T04:32:22;107.25;;;62.75;;
22851;SDS011;11592;45.460;9.240;2023-01-01T04:34:49;104.13;;;61.10;;
22851;SDS011;11592;45.460;9.240;2023-01-01T04:37:16;104.72;;;59.72;;
22851;SDS011;11592;45.460;9.240;2023-01-01T04:39:43;96.90;;;56.65;;
22851;SDS011;11592;45.460;9.240;2023-01-01T04:42:09;94.57;;;55.70;;
22851;SDS011;11592;45.460;9.240;2023-01-01T04:44:36;91.35;;;52.92;;
22851;SDS011;11592;45.460;9.240;2023-01-01T04:47:03;86.82;;;50.15;;
22851;SDS011;11592;45.460;9.240;2023-01-01T04:49:30;85.60;;;49.35;;
22851;SDS011;11592;45.460;9.240;2023-01-01T04:51:57;82.20;;;48.53;;
22851;SDS011;11592;45.460;9.240;2023-01-01T04:54:24;82.78;;;47.38;;
22851;SDS011;11592;45.460;9.240;2023-01-01T04:56:51;83.57;;;46.67;;
22851;SDS011;11592;45.460;9.240;2023-01-01T04:59:17;79.05;;;43.72;;
22851;SDS011;11592;45.460;9.240;2023-01-01T05:01:44;76.75;;;43.90;;
22851;SDS011;11592;45.460;9.240;2023-01-01T05:04:12;78.53;;;42.70;;
22851;SDS011;11592;45.460;9.240;2023-01-01T05:06:40;70.45;;;40.55;;
22851;SDS011;11592;45.460;9.240;2023-01-01T05:09:08;67.15;;;38.80;;
22851;SDS011;11592;45.460;9.240;2023-01-01T05:11:35;67.07;;;38.95;;
22851;SDS011;11592;45.460;9.240;2023-01-01T05:14:02;65.57;;;37.13;;
22851;SDS011;11592;45.460;9.240;2023-01-01T05:16:34;64.13;;;36.83;;
22851;SDS011;11592;45.460;9.240;2023-01-01T05:19:02;64.13;;;37.17;;
22851;SDS011;11592;45.460;9.240;2023-01-01T05:21:31;59.20;;;35.22;;
22851;SDS011;11592;45.460;9.240;2023-01-01T05:24:01;58.83;;;33.45;;
22851;SDS011;11592;45.460;9.240;2023-01-01T05:26:30;57.25;;;33.08;;
22851;SDS011;11592;45.460;9.240;2023-01-01T05:29:00;60.00;;;34.22;;
22851;SDS011;11592;45.460;9.240;2023-01-01T05:31:28;58.65;;;32.95;;
22851;SDS011;11592;45.460;9.240;2023-01-01T05:33:57;56.80;;;32.50;;
22851;SDS011;11592;45.460;9.240;2023-01-01T05:36:30;54.38;;;30.20;;
22851;SDS011;11592;45.460;9.240;2023-01-01T05:39:04;53.80;;;31.33;;
22851;SDS011;11592;45.460;9.240;2023-01-01T05:41:32;52.63;;;30.20;;
22851;SDS011;11592;45.460;9.240;2023-01-01T05:44:03;53.28;;;29.88;;
22851;SDS011;11592;45.460;9.240;2023-01-01T05:46:31;52.90;;;29.73;;
22851;SDS011;11592;45.460;9.240;2023-01-01T05:48:58;54.70;;;30.83;;
22851;SDS011;11592;45.460;9.240;2023-01-01T05:51:26;51.28;;;30.05;;
22851;SDS011;11592;45.460;9.240;2023-01-01T05:53:54;50.20;;;29.48;;
22851;SDS011;11592;45.460;9.240;2023-01-01T05:56:21;55.38;;;30.83;;
22851;SDS011;11592;45.460;9.240;2023-01-01T05:58:49;51.58;;;29.92;;
22851;SDS011;11592;45.460;9.240;2023-01-01T06:01:23;49.72;;;28.63;;
22851;SDS011;11592;45.460;9.240;2023-01-01T06:03:52;50.33;;;28.05;;
22851;SDS011;11592;45.460;9.240;2023-01-01T06:06:21;49.13;;;28.38;;
22851;SDS011;11592;45.460;9.240;2023-01-01T06:08:51;51.63;;;29.85;;
22851;SDS011;11592;45.460;9.240;2023-01-01T06:11:19;49.30;;;28.20;;
22851;SDS011;11592;45.460;9.240;2023-01-01T06:13:46;52.05;;;28.67;;
22851;SDS011;11592;45.460;9.240;2023-01-01T06:16:13;55.22;;;29.42;;
22851;SDS011;11592;45.460;9.240;2023-01-01T06:18:40;53.97;;;29.38;;
22851;SDS011;11592;45.460;9.240;2023-01-01T06:21:11;52.75;;;29.15;;
22851;SDS011;11592;45.460;9.240;2023-01-01T06:23:40;51.70;;;29.10;;
22851;SDS011;11592;45.460;9.240;2023-01-01T06:26:14;54.97;;;29.27;;
22851;SDS011;11592;45.460;9.240;2023-01-01T06:28:43;54.22;;;29.08;;
22851;SDS011;11592;45.460;9.240;2023-01-01T06:31:11;49.20;;;29.05;;
22851;SDS011;11592;45.460;9.240;2023-01-01T06:33:40;49.28;;;28.58;;
22851;SDS011;11592;45.460;9.240;2023-01-01T06:36:08;52.70;;;28.63;;
22851;SDS011;11592;45.460;9.240;2023-01-01T06:38:37;47.03;;;27.35;;
22851;SDS011;11592;45.460;9.240;2023-01-01T06:41:07;52.35;;;29.38;;
22851;SDS011;11592;45.460;9.240;2023-01-01T06:43:41;51.85;;;28.42;;
22851;SDS011;11592;45.460;9.240;2023-01-01T06:48:35;52.25;;;28.90;;
22851;SDS011;11592;45.460;9.240;2023-01-01T06:51:09;47.72;;;28.00;;
22851;SDS011;11592;45.460;9.240;2023-01-01T06:53:38;48.65;;;27.75;;
22851;SDS011;11592;45.460;9.240;2023-01-01T06:56:05;48.13;;;26.80;;
22851;SDS011;11592;45.460;9.240;2023-01-01T06:58:32;48.80;;;27.50;;
22851;SDS011;11592;45.460;9.240;2023-01-01T07:01:05;51.00;;;28.08;;
22851;SDS011;11592;45.460;9.240;2023-01-01T07:03:36;46.97;;;27.73;;
22851;SDS011;11592;45.460;9.240;2023-01-01T07:06:04;48.47;;;27.00;;
22851;SDS011;11592;45.460;9.240;2023-01-01T07:08:32;44.80;;;25.50;;
22851;SDS011;11592;45.460;9.240;2023-01-01T07:11:00;47.88;;;26.60;;
22851;SDS011;11592;45.460;9.240;2023-01-01T07:13:27;49.10;;;26.83;;
22851;SDS011;11592;45.460;9.240;2023-01-01T07:15:55;44.75;;;25.05;;
22851;SDS011;11592;45.460;9.240;2023-01-01T07:18:23;44.90;;;26.45;;
22851;SDS011;11592;45.460;9.240;2023-01-01T07:20:55;44.33;;;26.05;;
22851;SDS011;11592;45.460;9.240;2023-01-01T07:23:24;41.85;;;24.67;;
22851;SDS011;11592;45.460;9.240;2023-01-01T07:25:52;41.22;;;24.83;;
22851;SDS011;11592;45.460;9.240;2023-01-01T07:28:20;46.42;;;26.13;;
22851;SDS011;11592;45.460;9.240;2023-01-01T07:30:47;42.78;;;24.48;;
22851;SDS011;11592;45.460;9.240;2023-01-01T07:33:15;45.40;;;24.58;;
22851;SDS011;11592;45.460;9.240;2023-01-01T07:35:44;43.40;;;24.55;;
22851;SDS011;11592;45.460;9.240;2023-01-01T07:38:11;45.28;;;24.50;;
22851;SDS011;11592;45.460;9.240;2023-01-01T07:40:39;44.60;;;24.15;;
22851;SDS011;11592;45.460;9.240;2023-01-01T07:43:07;41.03;;;23.50;;
22851;SDS011;11592;45.460;9.240;2023-01-01T07:45:34;43.15;;;23.27;;
22851;SDS011;11592;45.460;9.240;2023-01-01T07:48:01;41.63;;;23.70;;
22851;SDS011;11592;45.460;9.240;2023-01-01T07:50:29;43.03;;;24.02;;
22851;SDS011;11592;45.460;9.240;2023-01-01T07:52:57;42.00;;;24.48;;
22851;SDS011;11592;45.460;9.240;2023-01-01T07:55:24;45.78;;;25.08;;
22851;SDS011;11592;45.460;9.240;2023-01-01T07:57:52;46.40;;;25.70;;
22851;SDS011;11592;45.460;9.240;2023-01-01T08:00:19;51.08;;;27.08;;
22851;SDS011;11592;45.460;9.240;2023-01-01T08:02:47;45.42;;;25.42;;
22851;SDS011;11592;45.460;9.240;2023-01-01T08:05:14;54.85;;;27.05;;
22851;SDS011;11592;45.460;9.240;2023-01-01T08:07:49;50.40;;;26.52;;
22851;SDS011;11592;45.460;9.240;2023-01-01T08:10:17;49.25;;;26.52;;
22851;SDS011;11592;45.460;9.240;2023-01-01T08:12:45;50.67;;;26.08;;
22851;SDS011;11592;45.460;9.240;2023-01-01T08:15:13;48.00;;;26.92;;
22851;SDS011;11592;45.460;9.240;2023-01-01T08:17:40;48.17;;;26.67;;
22851;SDS011;11592;45.460;9.240;2023-01-01T08:20:12;46.10;;;24.60;;
22851;SDS011;11592;45.460;9.240;2023-01-01T08:22:39;46.25;;;25.83;;
22851;SDS011;11592;45.460;9.240;2023-01-01T08:25:06;47.00;;;27.65;;
22851;SDS011;11592;45.460;9.240;2023-01-01T08:27:33;50.72;;;27.98;;
22851;SDS011;11592;45.460;9.240;2023-01-01T08:30:00;47.17;;;26.15;;
22851;SDS011;11592;45.460;9.240;2023-01-01T08:32:27;49.65;;;27.23;;
22851;SDS011;11592;45.460;9.240;2023-01-01T08:34:53;49.75;;;27.90;;
22851;SDS011;11592;45.460;9.240;2023-01-01T08:37:20;46.40;;;26.35;;
22851;SDS011;11592;45.460;9.240;2023-01-01T08:39:49;49.65;;;28.02;;
22851;SDS011;11592;45.460;9.240;2023-01-01T08:42:16;51.33;;;28.23;;
22851;SDS011;11592;45.460;9.240;2023-01-01T08:44:43;49.92;;;28.35;;
22851;SDS011;11592;45.460;9.240;2023-01-01T08:47:20;51.13;;;27.73;;
22851;SDS011;11592;45.460;9.240;2023-01-01T08:49:49;45.92;;;26.98;;
22851;SDS011;11592;45.460;9.240;2023-01-01T08:52:16;47.53;;;27.95;;
22851;SDS011;11592;45.460;9.240;2023-01-01T08:54:44;49.28;;;27.98;;
22851;SDS011;11592;45.460;9.240;2023-01-01T08:57:11;49.83;;;28.50;;
22851;SDS011;11592;45.460;9.240;2023-01-01T08:59:38;50.30;;;29.33;;
22851;SDS011;11592;45.460;9.240;2023-01-01T09:02:06;50.15;;;28.65;;
22851;SDS011;11592;45.460;9.240;2023-01-01T09:04:33;50.25;;;28.75;;
22851;SDS011;11592;45.460;9.240;2023-01-01T09:07:00;50.60;;;29.67;;
22851;SDS011;11592;45.460;9.240;2023-01-01T09:09:27;52.65;;;30.05;;
22851;SDS011;11592;45.460;9.240;2023-01-01T09:11:57;50.05;;;29.42;;
22851;SDS011;11592;45.460;9.240;2023-01-01T09:14:29;52.53;;;30.13;;
22851;SDS011;11592;45.460;9.240;2023-01-01T09:16:56;56.33;;;31.67;;
22851;SDS011;11592;45.460;9.240;2023-01-01T09:19:22;52.55;;;30.45;;
22851;SDS011;11592;45.460;9.240;2023-01-01T09:21:50;50.78;;;30.67;;
22851;SDS011;11592;45.460;9.240;2023-01-01T09:24:17;57.85;;;33.47;;
22851;SDS011;11592;45.460;9.240;2023-01-01T09:26:44;56.33;;;33.10;;
22851;SDS011;11592;45.460;9.240;2023-01-01T09:29:11;60.13;;;35.58;;
22851;SDS011;11592;45.460;9.240;2023-01-01T09:31:37;55.72;;;33.35;;
22851;SDS011;11592;45.460;9.240;2023-01-01T09:34:04;64.65;;;34.05;;
22851;SDS011;11592;45.460;9.240;2023-01-01T09:36:31;63.88;;;35.58;;
22851;SDS011;11592;45.460;9.240;2023-01-01T09:38:59;61.40;;;34.75;;
22851;SDS011;11592;45.460;9.240;2023-01-01T09:44:05;61.03;;;35.42;;
22851;SDS011;11592;45.460;9.240;2023-01-01T09:46:53;61.95;;;35.70;;
22851;SDS011;11592;45.460;9.240;2023-01-01T09:49:39;64.00;;;36.08;;
22851;SDS011;11592;45.460;9.240;2023-01-01T09:52:08;59.10;;;34.55;;
22851;SDS011;11592;45.460;9.240;2023-01-01T09:57:09;62.35;;;35.78;;
22851;SDS011;11592;45.460;9.240;2023-01-01T09:59:45;70.15;;;37.42;;
22851;SDS011;11592;45.460;9.240;2023-01-01T10:07:30;70.13;;;39.13;;
22851;SDS011;11592;45.460;9.240;2023-01-01T10:10:21;66.10;;;36.85;;
22851;SDS011;11592;45.460;9.240;2023-01-01T10:18:51;75.82;;;40.15;;
22851;SDS011;11592;45.460;9.240;2023-01-01T10:21:25;77.25;;;40.97;;
22851;SDS011;11592;45.460;9.240;2023-01-01T10:24:08;75.57;;;39.90;;
22851;SDS011;11592;45.460;9.240;2023-01-01T10:26:58;69.15;;;38.13;;
22851;SDS011;11592;45.460;9.240;2023-01-01T10:29:43;68.80;;;37.10;;
22851;SDS011;11592;45.460;9.240;2023-01-01T10:32:20;69.50;;;38.95;;
22851;SDS011;11592;45.460;9.240;2023-01-01T10:34:53;68.78;;;38.28;;
22851;SDS011;11592;45.460;9.240;2023-01-01T10:37:20;73.25;;;39.67;;
22851;SDS011;11592;45.460;9.240;2023-01-01T10:39:48;72.63;;;38.95;;
22851;SDS011;11592;45.460;9.240;2023-01-01T10:42:15;74.28;;;40.92;;
22851;SDS011;11592;45.460;9.240;2023-01-01T10:44:42;71.65;;;39.08;;
22851;SDS011;11592;45.460;9.240;2023-01-01T10:47:23;72.13;;;39.00;;
22851;SDS011;11592;45.460;9.240;2023-01-01T10:50:04;76.03;;;39.92;;
22851;SDS011;11592;45.460;9.240;2023-01-01T10:52:34;77.57;;;39.70;;
22851;SDS011;11592;45.460;9.240;2023-01-01T10:55:03;74.60;;;39.22;;
22851;SDS011;11592;45.460;9.240;2023-01-01T10:57:35;73.10;;;39.00;;
22851;SDS011;11592;45.460;9.240;2023-01-01T11:00:22;80.40;;;40.85;;
22851;SDS011;11592;45.460;9.240;2023-01-01T11:06:02;71.55;;;38.40;;
22851;SDS011;11592;45.460;9.240;2023-01-01T11:08:30;72.32;;;37.60;;
22851;SDS011;11592;45.460;9.240;2023-01-01T11:11:00;69.38;;;37.90;;
22851;SDS011;11592;45.460;9.240;2023-01-01T11:13:28;70.43;;;38.58;;
22851;SDS011;11592;45.460;9.240;2023-01-01T11:15:56;77.43;;;39.47;;
22851;SDS011;11592;45.460;9.240;2023-01-01T11:18:30;75.50;;;39.78;;
22851;SDS011;11592;45.460;9.240;2023-01-01T11:21:02;75.45;;;39.08;;
22851;SDS011;11592;45.460;9.240;2023-01-01T11:23:32;79.45;;;40.25;;
22851;SDS011;11592;45.460;9.240;2023-01-01T11:26:03;81.68;;;40.90;;
22851;SDS011;11592;45.460;9.240;2023-01-01T11:28:30;77.63;;;38.85;;
22851;SDS011;11592;45.460;9.240;2023-01-01T11:33:36;69.85;;;37.80;;
22851;SDS011;11592;45.460;9.240;2023-01-01T11:36:10;68.60;;;37.42;;
22851;SDS011;11592;45.460;9.240;2023-01-01T11:38:45;76.10;;;40.43;;
22851;SDS011;11592;45.460;9.240;2023-01-01T11:41:16;71.78;;;39.03;;
22851;SDS011;11592;45.460;9.240;2023-01-01T11:43:43;70.95;;;38.00;;
22851;SDS011;11592;45.460;9.240;2023-01-01T11:46:15;69.28;;;36.97;;
22851;SDS011;11592;45.460;9.240;2023-01-01T11:48:50;72.63;;;37.20;;
22851;SDS011;11592;45.460;9.240;2023-01-01T11:51:31;72.97;;;39.28;;
22851;SDS011;11592;45.460;9.240;2023-01-01T11:57:05;67.68;;;36.90;;
22851;SDS011;11592;45.460;9.240;2023-01-01T11:59:42;68.05;;;36.42;;
22851;SDS011;11592;45.460;9.240;2023-01-01T12:02:42;68.57;;;36.20;;
22851;SDS011;11592;45.460;9.240;2023-01-01T12:05:23;79.18;;;39.58;;
22851;SDS011;11592;45.460;9.240;2023-01-01T12:07:59;72.85;;;36.90;;
22851;SDS011;11592;45.460;9.240;2023-01-01T12:10:40;77.45;;;38.83;;
22851;SDS011;11592;45.460;9.240;2023-01-01T12:13:27;79.78;;;38.75;;
22851;SDS011;11592;45.460;9.240;2023-01-01T12:16:05;73.80;;;37.88;;
22851;SDS011;11592;45.460;9.240;2023-01-01T12:21:29;70.25;;;36.78;;
22851;SDS011;11592;45.460;9.240;2023-01-01T12:24:00;67.47;;;34.50;;
22851;SDS011;11592;45.460;9.240;2023-01-01T12:26:46;72.43;;;36.35;;
22851;SDS011;11592;45.460;9.240;2023-01-01T12:29:25;71.15;;;33.45;;
22851;SDS011;11592;45.460;9.240;2023-01-01T12:32:17;68.30;;;35.28;;
22851;SDS011;11592;45.460;9.240;2023-01-01T12:42:59;70.38;;;34.17;;
22851;SDS011;11592;45.460;9.240;2023-01-01T12:59:01;59.88;;;30.55;;
22851;SDS011;11592;45.460;9.240;2023-01-01T13:01:42;49.80;;;27.52;;
22851;SDS011;11592;45.460;9.240;2023-01-01T13:04:11;51.22;;;27.85;;
22851;SDS011;11592;45.460;9.240;2023-01-01T13:06:47;50.15;;;27.40;;
22851;SDS011;11592;45.460;9.240;2023-01-01T13:09:38;44.75;;;26.02;;
22851;SDS011;11592;45.460;9.240;2023-01-01T13:12:11;48.05;;;24.90;;
22851;SDS011;11592;45.460;9.240;2023-01-01T13:14:58;42.10;;;24.60;;
22851;SDS011;11592;45.460;9.240;2023-01-01T13:17:26;41.35;;;24.00;;
22851;SDS011;11592;45.460;9.240;2023-01-01T13:22:38;39.40;;;22.80;;
22851;SDS011;11592;45.460;9.240;2023-01-01T13:33:36;37.88;;;22.60;;
22851;SDS011;11592;45.460;9.240;2023-01-01T13:52:31;32.00;;;19.17;;
22851;SDS011;11592;45.460;9.240;2023-01-01T14:04:04;29.58;;;16.98;;
22851;SDS011;11592;45.460;9.240;2023-01-01T14:06:39;28.40;;;17.27;;
22851;SDS011;11592;45.460;9.240;2023-01-01T14:09:12;28.70;;;17.20;;
22851;SDS011;11592;45.460;9.240;2023-01-01T14:11:41;27.02;;;16.98;;
22851;SDS011;11592;45.460;9.240;2023-01-01T14:14:18;29.85;;;17.95;;
22851;SDS011;11592;45.460;9.240;2023-01-01T14:16:57;29.23;;;17.10;;
22851;SDS011;11592;45.460;9.240;2023-01-01T14:19:27;29.67;;;17.27;;
22851;SDS011;11592;45.460;9.240;2023-01-01T14:21:54;30.85;;;17.77;;
22851;SDS011;11592;45.460;9.240;2023-01-01T14:24:22;32.60;;;20.05;;
22851;SDS011;11592;45.460;9.240;2023-01-01T14:26:50;37.70;;;20.90;;
22851;SDS011;11592;45.460;9.240;2023-01-01T14:29:26;38.88;;;22.55;;
22851;SDS011;11592;45.460;9.240;2023-01-01T14:34:29;36.45;;;21.25;;
22851;SDS011;11592;45.460;9.240;2023-01-01T14:36:59;41.97;;;22.85;;
22851;SDS011;11592;45.460;9.240;2023-01-01T14:39:28;42.58;;;24.38;;
22851;SDS011;11592;45.460;9.240;2023-01-01T14:42:00;40.63;;;23.75;;
22851;SDS011;11592;45.460;9.240;2023-01-01T14:44:32;47.40;;;24.67;;
22851;SDS011;11592;45.460;9.240;2023-01-01T14:47:02;44.78;;;23.90;;
22851;SDS011;11592;45.460;9.240;2023-01-01T14:49:34;43.97;;;24.63;;
22851;SDS011;11592;45.460;9.240;2023-01-01T14:54:51;42.50;;;24.80;;
22851;SDS011;11592;45.460;9.240;2023-01-01T14:57:31;44.70;;;24.70;;
22851;SDS011;11592;45.460;9.240;2023-01-01T15:00:03;44.88;;;24.90;;
22851;SDS011;11592;45.460;9.240;2023-01-01T15:02:49;44.75;;;24.98;;
22851;SDS011;11592;45.460;9.240;2023-01-01T15:05:25;41.97;;;24.40;;
22851;SDS011;11592;45.460;9.240;2023-01-01T15:08:01;41.75;;;23.63;;
22851;SDS011;11592;45.460;9.240;2023-01-01T15:10:30;40.40;;;23.33;;
22851;SDS011;11592;45.460;9.240;2023-01-01T15:13:03;41.85;;;24.15;;
22851;SDS011;11592;45.460;9.240;2023-01-01T15:15:35;43.28;;;23.50;;
22851;SDS011;11592;45.460;9.240;2023-01-01T15:26:43;36.33;;;21.25;;
22851;SDS011;11592;45.460;9.240;2023-01-01T15:32:23;34.58;;;21.27;;
22851;SDS011;11592;45.460;9.240;2023-01-01T15:37:41;40.90;;;22.15;;
22851;SDS011;11592;45.460;9.240;2023-01-01T15:42:45;36.58;;;20.90;;
22851;SDS011;11592;45.460;9.240;2023-01-01T15:45:32;31.48;;;19.45;;
22851;SDS011;11592;45.460;9.240;2023-01-01T15:48:47;33.05;;;20.55;;
22851;SDS011;11592;45.460;9.240;2023-01-01T15:51:03;32.03;;;19.75;;
22851;SDS011;11592;45.460;9.240;2023-01-01T15:56:18;34.50;;;19.95;;
22851;SDS011;11592;45.460;9.240;2023-01-01T16:01:34;34.22;;;20.13;;
22851;SDS011;11592;45.460;9.240;2023-01-01T16:04:07;30.90;;;18.80;;
22851;SDS011;11592;45.460;9.240;2023-01-01T16:06:46;34.50;;;19.73;;
22851;SDS011;11592;45.460;9.240;2023-01-01T16:09:15;29.48;;;18.38;;
22851;SDS011;11592;45.460;9.240;2023-01-01T16:11:42;30.85;;;18.45;;
22851;SDS011;11592;45.460;9.240;2023-01-01T16:14:10;32.50;;;19.77;;
22851;SDS011;11592;45.460;9.240;2023-01-01T16:16:37;33.97;;;19.90;;
22851;SDS011;11592;45.460;9.240;2023-01-01T16:19:17;34.03;;;19.58;;
22851;SDS011;11592;45.460;9.240;2023-01-01T16:21:46;30.95;;;19.73;;
22851;SDS011;11592;45.460;9.240;2023-01-01T16:24:13;32.13;;;19.25;;
22851;SDS011;11592;45.460;9.240;2023-01-01T16:26:42;30.42;;;19.20;;
22851;SDS011;11592;45.460;9.240;2023-01-01T16:29:08;31.88;;;18.88;;
22851;SDS011;11592;45.460;9.240;2023-01-01T16:31:36;29.08;;;18.90;;
22851;SDS011;11592;45.460;9.240;2023-01-01T16:34:03;36.47;;;21.15;;
22851;SDS011;11592;45.460;9.240;2023-01-01T16:36:30;29.17;;;18.45;;
22851;SDS011;11592;45.460;9.240;2023-01-01T16:38:57;30.02;;;19.77;;
22851;SDS011;11592;45.460;9.240;2023-01-01T16:41:25;31.58;;;19.00;;
22851;SDS011;11592;45.460;9.240;2023-01-01T16:43:54;31.85;;;18.58;;
22851;SDS011;11592;45.460;9.240;2023-01-01T16:46:21;32.47;;;19.00;;
22851;SDS011;11592;45.460;9.240;2023-01-01T16:48:47;29.55;;;18.33;;
22851;SDS011;11592;45.460;9.240;2023-01-01T16:51:18;32.45;;;19.17;;
22851;SDS011;11592;45.460;9.240;2023-01-01T16:53:48;31.52;;;18.98;;
22851;SDS011;11592;45.460;9.240;2023-01-01T16:56:15;30.48;;;19.80;;
22851;SDS011;11592;45.460;9.240;2023-01-01T16:58:42;33.17;;;19.08;;
22851;SDS011;11592;45.460;9.240;2023-01-01T17:01:23;32.50;;;19.17;;
22851;SDS011;11592;45.460;9.240;2023-01-01T17:03:50;36.60;;;19.92;;
22851;SDS011;11592;45.460;9.240;2023-01-01T17:06:17;31.52;;;18.77;;